sensor_id;sensor_type;location;lat;lon;timestamp;P1;durP1;ratioP1;P2;durP2;ratioP2
18172;SDS011;9211;48.818;9.312;2023-03-01T00:01:29;29.10;;;15.48;;
18172;SDS011;9211;48.818;9.312;2023-03-01T00:03:58;27.60;;;15.65;;
18172;SDS011;9211;48.818;9.312;2023-03-01T00:06:26;26.65;;;15.23;;
18172;SDS011;9211;48.818;9.312;2023-03-01T00:08:53;28.63;;;15.45;;
18172;SDS011;9211;48.818;9.312;2023-03-01T00:11:21;28.42;;;15.18;;
18172;SDS011;9211;48.818;9.312;2023-03-01T00:13:50;26.55;;;15.35;;
18172;SDS011;9211;48.818;9.312;2023-03-01T00:16:20;26.55;;;14.55;;
18172;SDS011;9211;48.818;9.312;2023-03-01T00:18:48;26.48;;;14.88;;
18172;SDS011;9211;48.818;9.312;2023-03-01T00:21:18;27.85;;;15.60;;
18172;SDS011;9211;48.818;9.312;2023-03-01T00:23:48;28.15;;;15.30;;
18172;SDS011;9211;48.818;9.312;2023-03-01T00:26:16;27.83;;;14.70;;
18172;SDS011;9211;48.818;9.312;2023-03-01T00:28:44;27.23;;;15.13;;
18172;SDS011;9211;48.818;9.312;2023-03-01T00:31:12;30.73;;;15.55;;
18172;SDS011;9211;48.818;9.312;2023-03-01T00:33:40;27.38;;;15.23;;
18172;SDS011;9211;48.818;9.312;2023-03-01T00:36:07;26.88;;;14.82;;
18172;SDS011;9211;48.818;9.312;2023-03-01T00:38:36;26.52;;;14.70;;
18172;SDS011;9211;48.818;9.312;2023-03-01T00:41:04;25.67;;;14.43;;
18172;SDS011;9211;48.818;9.312;2023-03-01T00:43:32;29.02;;;16.08;;
18172;SDS011;9211;48.818;9.312;2023-03-01T00:46:01;28.20;;;15.70;;
18172;SDS011;9211;48.818;9.312;2023-03-01T00:48:29;29.03;;;15.63;;
18172;SDS011;9211;48.818;9.312;2023-03-01T00:50:56;27.75;;;14.80;;
18172;SDS011;9211;48.818;9.312;2023-03-01T00:53:23;30.38;;;15.40;;
18172;SDS011;9211;48.818;9.312;2023-03-01T00:55:51;27.45;;;15.63;;
18172;SDS011;9211;48.818;9.312;2023-03-01T00:58:18;27.60;;;14.90;;
18172;SDS011;9211;48.818;9.312;2023-03-01T01:00:45;28.38;;;15.40;;
18172;SDS011;9211;48.818;9.312;2023-03-01T01:03:12;28.02;;;15.60;;
18172;SDS011;9211;48.818;9.312;2023-03-01T01:05:39;28.00;;;15.18;;
18172;SDS011;9211;48.818;9.312;2023-03-01T01:08:06;30.38;;;15.07;;
18172;SDS011;9211;48.818;9.312;2023-03-01T01:10:33;26.53;;;14.87;;
18172;SDS011;9211;48.818;9.312;2023-03-01T01:13:02;26.67;;;14.95;;
18172;SDS011;9211;48.818;9.312;2023-03-01T01:15:31;31.10;;;15.40;;
18172;SDS011;9211;48.818;9.312;2023-03-01T01:18:00;28.65;;;15.27;;
18172;SDS011;9211;48.818;9.312;2023-03-01T01:20:27;28.75;;;16.45;;
18172;SDS011;9211;48.818;9.312;2023-03-01T01:22:54;28.20;;;16.00;;
18172;SDS011;9211;48.818;9.312;2023-03-01T01:25:22;31.02;;;15.57;;
18172;SDS011;9211;48.818;9.312;2023-03-01T01:27:50;28.05;;;15.13;;
18172;SDS011;9211;48.818;9.312;2023-03-01T01:30:18;31.20;;;15.18;;
18172;SDS011;9211;48.818;9.312;2023-03-01T01:32:45;27.92;;;15.30;;
18172;SDS011;9211;48.818;9.312;2023-03-01T01:35:12;28.23;;;15.32;;
18172;SDS011;9211;48.818;9.312;2023-03-01T01:37:39;27.90;;;15.43;;
18172;SDS011;9211;48.818;9.312;2023-03-01T01:40:06;28.55;;;15.43;;
18172;SDS011;9211;48.818;9.312;2023-03-01T01:42:35;27.17;;;14.90;;
18172;SDS011;9211;48.818;9.312;2023-03-01T01:47:55;27.42;;;15.02;;
18172;SDS011;9211;48.818;9.312;2023-03-01T01:50:26;30.88;;;15.52;;
18172;SDS011;9211;48.818;9.312;2023-03-01T01:53:04;28.65;;;15.85;;
18172;SDS011;9211;48.818;9.312;2023-03-01T01:55:34;27.33;;;14.73;;
18172;SDS011;9211;48.818;9.312;2023-03-01T01:58:04;30.73;;;15.77;;
18172;SDS011;9211;48.818;9.312;2023-03-01T02:00:36;28.58;;;15.60;;
18172;SDS011;9211;48.818;9.312;2023-03-01T02:03:06;27.93;;;15.93;;
18172;SDS011;9211;48.818;9.312;2023-03-01T02:05:37;28.48;;;15.98;;
18172;SDS011;9211;48.818;9.312;2023-03-01T02:08:09;28.85;;;15.40;;
18172;SDS011;9211;48.818;9.312;2023-03-01T02:10:39;28.10;;;15.55;;
18172;SDS011;9211;48.818;9.312;2023-03-01T02:13:08;27.88;;;15.65;;
18172;SDS011;9211;48.818;9.312;2023-03-01T02:15:37;29.05;;;16.00;;
18172;SDS011;9211;48.818;9.312;2023-03-01T02:18:06;29.77;;;16.00;;
18172;SDS011;9211;48.818;9.312;2023-03-01T02:20:36;29.60;;;15.83;;
18172;SDS011;9211;48.818;9.312;2023-03-01T02:23:11;27.67;;;15.68;;
18172;SDS011;9211;48.818;9.312;2023-03-01T02:25:41;28.45;;;15.52;;
18172;SDS011;9211;48.818;9.312;2023-03-01T02:28:21;27.67;;;15.45;;
18172;SDS011;9211;48.818;9.312;2023-03-01T02:30:56;28.33;;;15.60;;
18172;SDS011;9211;48.818;9.312;2023-03-01T02:33:40;30.80;;;15.80;;
18172;SDS011;9211;48.818;9.312;2023-03-01T02:36:09;27.95;;;15.85;;
18172;SDS011;9211;48.818;9.312;2023-03-01T02:38:41;29.50;;;15.90;;
18172;SDS011;9211;48.818;9.312;2023-03-01T02:41:09;27.85;;;16.23;;
18172;SDS011;9211;48.818;9.312;2023-03-01T02:43:39;28.33;;;15.90;;
18172;SDS011;9211;48.818;9.312;2023-03-01T02:46:08;29.20;;;15.90;;
18172;SDS011;9211;48.818;9.312;2023-03-01T02:48:41;28.70;;;16.13;;
18172;SDS011;9211;48.818;9.312;2023-03-01T02:51:13;28.87;;;15.80;;
18172;SDS011;9211;48.818;9.312;2023-03-01T02:54:07;30.83;;;16.13;;
18172;SDS011;9211;48.818;9.312;2023-03-01T02:56:40;27.55;;;15.80;;
18172;SDS011;9211;48.818;9.312;2023-03-01T02:59:10;30.50;;;16.10;;
18172;SDS011;9211;48.818;9.312;2023-03-01T03:01:37;30.65;;;16.15;;
18172;SDS011;9211;48.818;9.312;2023-03-01T03:04:07;28.35;;;15.98;;
18172;SDS011;9211;48.818;9.312;2023-03-01T03:06:37;30.70;;;15.85;;
18172;SDS011;9211;48.818;9.312;2023-03-01T03:09:05;28.00;;;15.52;;
18172;SDS011;9211;48.818;9.312;2023-03-01T03:11:33;31.38;;;16.48;;
18172;SDS011;9211;48.818;9.312;2023-03-01T03:14:02;28.90;;;16.30;;
18172;SDS011;9211;48.818;9.312;2023-03-01T03:16:31;30.55;;;16.15;;
18172;SDS011;9211;48.818;9.312;2023-03-01T03:18:58;29.42;;;16.40;;
18172;SDS011;9211;48.818;9.312;2023-03-01T03:21:30;30.50;;;16.23;;
18172;SDS011;9211;48.818;9.312;2023-03-01T03:23:57;29.40;;;16.13;;
18172;SDS011;9211;48.818;9.312;2023-03-01T03:26:24;31.17;;;16.85;;
18172;SDS011;9211;48.818;9.312;2023-03-01T03:28:51;29.13;;;16.55;;
18172;SDS011;9211;48.818;9.312;2023-03-01T03:31:18;28.63;;;16.38;;
18172;SDS011;9211;48.818;9.312;2023-03-01T03:33:47;33.13;;;17.00;;
18172;SDS011;9211;48.818;9.312;2023-03-01T03:36:15;31.23;;;16.73;;
18172;SDS011;9211;48.818;9.312;2023-03-01T03:38:43;29.33;;;16.45;;
18172;SDS011;9211;48.818;9.312;2023-03-01T03:41:10;30.20;;;16.58;;
18172;SDS011;9211;48.818;9.312;2023-03-01T03:43:38;28.90;;;16.20;;
18172;SDS011;9211;48.818;9.312;2023-03-01T03:46:08;32.35;;;16.98;;
18172;SDS011;9211;48.818;9.312;2023-03-01T03:48:37;32.03;;;17.13;;
18172;SDS011;9211;48.818;9.312;2023-03-01T03:51:07;30.23;;;16.85;;
18172;SDS011;9211;48.818;9.312;2023-03-01T03:53:36;29.17;;;16.88;;
18172;SDS011;9211;48.818;9.312;2023-03-01T03:56:03;32.45;;;17.52;;
18172;SDS011;9211;48.818;9.312;2023-03-01T03:58:31;31.55;;;17.83;;
18172;SDS011;9211;48.818;9.312;2023-03-01T04:00:58;32.53;;;18.00;;
18172;SDS011;9211;48.818;9.312;2023-03-01T04:03:26;34.38;;;18.40;;
18172;SDS011;9211;48.818;9.312;2023-03-01T04:05:56;31.33;;;17.70;;
18172;SDS011;9211;48.818;9.312;2023-03-01T04:08:25;32.80;;;17.80;;
18172;SDS011;9211;48.818;9.312;2023-03-01T04:10:57;30.75;;;17.90;;
18172;SDS011;9211;48.818;9.312;2023-03-01T04:13:46;31.42;;;18.25;;
18172;SDS011;9211;48.818;9.312;2023-03-01T04:16:13;32.08;;;17.65;;
18172;SDS011;9211;48.818;9.312;2023-03-01T04:18:39;31.77;;;17.70;;
18172;SDS011;9211;48.818;9.312;2023-03-01T04:21:06;32.65;;;18.15;;
18172;SDS011;9211;48.818;9.312;2023-03-01T04:23:35;32.95;;;17.73;;
18172;SDS011;9211;48.818;9.312;2023-03-01T04:26:02;32.47;;;17.75;;
18172;SDS011;9211;48.818;9.312;2023-03-01T04:28:32;33.95;;;18.13;;
18172;SDS011;9211;48.818;9.312;2023-03-01T04:31:02;33.50;;;18.67;;
18172;SDS011;9211;48.818;9.312;2023-03-01T04:33:38;35.72;;;18.77;;
18172;SDS011;9211;48.818;9.312;2023-03-01T04:36:06;32.10;;;17.85;;
18172;SDS011;9211;48.818;9.312;2023-03-01T04:38:36;34.88;;;18.17;;
18172;SDS011;9211;48.818;9.312;2023-03-01T04:41:04;32.87;;;18.50;;
18172;SDS011;9211;48.818;9.312;2023-03-01T04:43:32;33.85;;;18.85;;
18172;SDS011;9211;48.818;9.312;2023-03-01T04:46:00;32.97;;;18.65;;
18172;SDS011;9211;48.818;9.312;2023-03-01T04:48:28;32.83;;;17.67;;
18172;SDS011;9211;48.818;9.312;2023-03-01T04:50:56;32.75;;;18.42;;
18172;SDS011;9211;48.818;9.312;2023-03-01T04:53:24;32.10;;;18.13;;
18172;SDS011;9211;48.818;9.312;2023-03-01T04:55:52;35.42;;;18.95;;
18172;SDS011;9211;48.818;9.312;2023-03-01T04:58:20;33.50;;;18.23;;
18172;SDS011;9211;48.818;9.312;2023-03-01T05:00:47;32.72;;;18.70;;
18172;SDS011;9211;48.818;9.312;2023-03-01T05:03:14;34.80;;;19.05;;
18172;SDS011;9211;48.818;9.312;2023-03-01T05:05:43;34.38;;;18.08;;
18172;SDS011;9211;48.818;9.312;2023-03-01T05:08:11;35.08;;;18.85;;
18172;SDS011;9211;48.818;9.312;2023-03-01T05:10:43;34.33;;;18.67;;
18172;SDS011;9211;48.818;9.312;2023-03-01T05:13:13;33.67;;;18.45;;
18172;SDS011;9211;48.818;9.312;2023-03-01T05:15:46;32.17;;;18.50;;
18172;SDS011;9211;48.818;9.312;2023-03-01T05:18:14;32.65;;;17.83;;
18172;SDS011;9211;48.818;9.312;2023-03-01T05:20:41;33.10;;;18.05;;
18172;SDS011;9211;48.818;9.312;2023-03-01T05:23:09;31.33;;;17.27;;
18172;SDS011;9211;48.818;9.312;2023-03-01T05:25:37;34.22;;;18.83;;
18172;SDS011;9211;48.818;9.312;2023-03-01T05:28:05;34.05;;;18.13;;
18172;SDS011;9211;48.818;9.312;2023-03-01T05:30:36;33.55;;;18.55;;
18172;SDS011;9211;48.818;9.312;2023-03-01T05:33:04;33.78;;;18.42;;
18172;SDS011;9211;48.818;9.312;2023-03-01T05:35:38;35.10;;;19.10;;
18172;SDS011;9211;48.818;9.312;2023-03-01T05:38:05;34.08;;;19.00;;
18172;SDS011;9211;48.818;9.312;2023-03-01T05:40:32;31.70;;;18.40;;
18172;SDS011;9211;48.818;9.312;2023-03-01T05:43:00;34.60;;;19.70;;
18172;SDS011;9211;48.818;9.312;2023-03-01T05:45:30;35.00;;;20.35;;
18172;SDS011;9211;48.818;9.312;2023-03-01T05:47:59;36.95;;;20.20;;
18172;SDS011;9211;48.818;9.312;2023-03-01T05:50:27;33.72;;;19.73;;
18172;SDS011;9211;48.818;9.312;2023-03-01T05:52:59;37.08;;;19.08;;
18172;SDS011;9211;48.818;9.312;2023-03-01T05:55:27;35.15;;;19.58;;
18172;SDS011;9211;48.818;9.312;2023-03-01T05:57:57;34.53;;;20.02;;
18172;SDS011;9211;48.818;9.312;2023-03-01T06:00:24;33.13;;;18.57;;
18172;SDS011;9211;48.818;9.312;2023-03-01T06:02:53;33.03;;;19.05;;
18172;SDS011;9211;48.818;9.312;2023-03-01T06:05:21;35.67;;;19.85;;
18172;SDS011;9211;48.818;9.312;2023-03-01T06:07:49;34.40;;;19.27;;
18172;SDS011;9211;48.818;9.312;2023-03-01T06:10:16;37.05;;;19.27;;
18172;SDS011;9211;48.818;9.312;2023-03-01T06:12:44;32.70;;;18.42;;
18172;SDS011;9211;48.818;9.312;2023-03-01T06:15:11;34.10;;;19.58;;
18172;SDS011;9211;48.818;9.312;2023-03-01T06:17:40;35.60;;;18.98;;
18172;SDS011;9211;48.818;9.312;2023-03-01T06:20:11;34.25;;;18.83;;
18172;SDS011;9211;48.818;9.312;2023-03-01T06:22:42;36.80;;;20.67;;
18172;SDS011;9211;48.818;9.312;2023-03-01T06:25:10;34.45;;;19.52;;
18172;SDS011;9211;48.818;9.312;2023-03-01T06:27:38;36.57;;;19.97;;
18172;SDS011;9211;48.818;9.312;2023-03-01T06:30:06;37.75;;;20.17;;
18172;SDS011;9211;48.818;9.312;2023-03-01T06:32:35;35.28;;;19.88;;
18172;SDS011;9211;48.818;9.312;2023-03-01T06:35:02;35.60;;;19.25;;
18172;SDS011;9211;48.818;9.312;2023-03-01T06:37:29;35.65;;;18.90;;
18172;SDS011;9211;48.818;9.312;2023-03-01T06:39:58;35.20;;;18.90;;
18172;SDS011;9211;48.818;9.312;2023-03-01T06:42:25;34.03;;;19.23;;
18172;SDS011;9211;48.818;9.312;2023-03-01T06:44:52;34.35;;;19.17;;
18172;SDS011;9211;48.818;9.312;2023-03-01T06:47:19;35.38;;;19.60;;
18172;SDS011;9211;48.818;9.312;2023-03-01T06:49:46;34.70;;;19.37;;
18172;SDS011;9211;48.818;9.312;2023-03-01T06:52:13;34.95;;;19.45;;
18172;SDS011;9211;48.818;9.312;2023-03-01T06:54:39;34.60;;;19.08;;
18172;SDS011;9211;48.818;9.312;2023-03-01T06:57:08;34.50;;;19.05;;
18172;SDS011;9211;48.818;9.312;2023-03-01T06:59:35;37.28;;;19.67;;
18172;SDS011;9211;48.818;9.312;2023-03-01T07:02:02;38.00;;;19.67;;
18172;SDS011;9211;48.818;9.312;2023-03-01T07:04:28;33.78;;;18.92;;
18172;SDS011;9211;48.818;9.312;2023-03-01T07:06:55;37.75;;;20.52;;
18172;SDS011;9211;48.818;9.312;2023-03-01T07:09:23;35.78;;;19.25;;
18172;SDS011;9211;48.818;9.312;2023-03-01T07:11:50;37.72;;;19.85;;
18172;SDS011;9211;48.818;9.312;2023-03-01T07:14:18;39.38;;;19.60;;
18172;SDS011;9211;48.818;9.312;2023-03-01T07:16:45;37.93;;;19.77;;
18172;SDS011;9211;48.818;9.312;2023-03-01T07:19:13;37.67;;;19.83;;
18172;SDS011;9211;48.818;9.312;2023-03-01T07:21:40;35.15;;;19.90;;
18172;SDS011;9211;48.818;9.312;2023-03-01T07:24:07;36.38;;;20.23;;
18172;SDS011;9211;48.818;9.312;2023-03-01T07:26:34;34.40;;;19.80;;
18172;SDS011;9211;48.818;9.312;2023-03-01T07:29:02;35.45;;;19.50;;
18172;SDS011;9211;48.818;9.312;2023-03-01T07:31:32;37.03;;;19.30;;
18172;SDS011;9211;48.818;9.312;2023-03-01T07:33:59;33.35;;;18.88;;
18172;SDS011;9211;48.818;9.312;2023-03-01T07:36:26;37.30;;;19.40;;
18172;SDS011;9211;48.818;9.312;2023-03-01T07:38:53;36.17;;;19.50;;
18172;SDS011;9211;48.818;9.312;2023-03-01T07:41:20;37.00;;;20.50;;
18172;SDS011;9211;48.818;9.312;2023-03-01T07:43:48;36.90;;;19.52;;
18172;SDS011;9211;48.818;9.312;2023-03-01T07:46:14;36.40;;;19.40;;
18172;SDS011;9211;48.818;9.312;2023-03-01T07:48:44;34.78;;;19.33;;
18172;SDS011;9211;48.818;9.312;2023-03-01T07:51:11;35.30;;;19.23;;
18172;SDS011;9211;48.818;9.312;2023-03-01T07:53:38;35.88;;;19.50;;
18172;SDS011;9211;48.818;9.312;2023-03-01T07:56:05;35.03;;;20.13;;
18172;SDS011;9211;48.818;9.312;2023-03-01T07:58:34;40.75;;;20.35;;
18172;SDS011;9211;48.818;9.312;2023-03-01T08:01:01;38.58;;;20.30;;
18172;SDS011;9211;48.818;9.312;2023-03-01T08:03:28;36.90;;;20.80;;
18172;SDS011;9211;48.818;9.312;2023-03-01T08:05:58;37.97;;;20.23;;
18172;SDS011;9211;48.818;9.312;2023-03-01T08:08:26;37.78;;;20.73;;
18172;SDS011;9211;48.818;9.312;2023-03-01T08:10:55;35.67;;;20.05;;
18172;SDS011;9211;48.818;9.312;2023-03-01T08:13:23;37.83;;;20.25;;
18172;SDS011;9211;48.818;9.312;2023-03-01T08:15:50;38.43;;;21.17;;
18172;SDS011;9211;48.818;9.312;2023-03-01T08:18:17;38.70;;;20.45;;
18172;SDS011;9211;48.818;9.312;2023-03-01T08:20:44;35.95;;;20.27;;
18172;SDS011;9211;48.818;9.312;2023-03-01T08:23:13;35.97;;;19.77;;
18172;SDS011;9211;48.818;9.312;2023-03-01T08:25:40;38.15;;;20.10;;
18172;SDS011;9211;48.818;9.312;2023-03-01T08:28:07;34.90;;;19.63;;
18172;SDS011;9211;48.818;9.312;2023-03-01T08:30:34;37.92;;;20.92;;
18172;SDS011;9211;48.818;9.312;2023-03-01T08:33:01;34.58;;;19.63;;
18172;SDS011;9211;48.818;9.312;2023-03-01T08:35:28;34.50;;;19.88;;
18172;SDS011;9211;48.818;9.312;2023-03-01T08:37:55;36.97;;;20.15;;
18172;SDS011;9211;48.818;9.312;2023-03-01T08:40:23;36.47;;;19.70;;
18172;SDS011;9211;48.818;9.312;2023-03-01T08:42:50;36.78;;;19.75;;
18172;SDS011;9211;48.818;9.312;2023-03-01T08:45:17;35.05;;;19.50;;
18172;SDS011;9211;48.818;9.312;2023-03-01T08:47:44;37.72;;;20.27;;
18172;SDS011;9211;48.818;9.312;2023-03-01T08:50:11;36.78;;;19.83;;
18172;SDS011;9211;48.818;9.312;2023-03-01T08:52:38;35.33;;;19.10;;
18172;SDS011;9211;48.818;9.312;2023-03-01T08:55:05;35.78;;;20.00;;
18172;SDS011;9211;48.818;9.312;2023-03-01T08:57:35;33.95;;;19.17;;
18172;SDS011;9211;48.818;9.312;2023-03-01T09:00:02;34.42;;;19.85;;
18172;SDS011;9211;48.818;9.312;2023-03-01T09:02:33;36.38;;;19.92;;
18172;SDS011;9211;48.818;9.312;2023-03-01T09:05:00;35.13;;;18.90;;
18172;SDS011;9211;48.818;9.312;2023-03-01T09:07:27;40.28;;;21.48;;
18172;SDS011;9211;48.818;9.312;2023-03-01T09:09:54;39.25;;;20.17;;
18172;SDS011;9211;48.818;9.312;2023-03-01T09:12:21;34.72;;;19.42;;
18172;SDS011;9211;48.818;9.312;2023-03-01T09:14:51;32.17;;;18.40;;
18172;SDS011;9211;48.818;9.312;2023-03-01T09:17:18;36.55;;;19.58;;
18172;SDS011;9211;48.818;9.312;2023-03-01T09:19:46;31.50;;;18.80;;
18172;SDS011;9211;48.818;9.312;2023-03-01T09:22:13;33.45;;;19.40;;
18172;SDS011;9211;48.818;9.312;2023-03-01T09:24:40;32.28;;;18.80;;
18172;SDS011;9211;48.818;9.312;2023-03-01T09:27:07;32.60;;;18.10;;
18172;SDS011;9211;48.818;9.312;2023-03-01T09:29:35;31.83;;;18.90;;
18172;SDS011;9211;48.818;9.312;2023-03-01T09:32:03;34.78;;;19.20;;
18172;SDS011;9211;48.818;9.312;2023-03-01T09:34:30;31.33;;;17.75;;
18172;SDS011;9211;48.818;9.312;2023-03-01T09:37:17;34.13;;;18.30;;
18172;SDS011;9211;48.818;9.312;2023-03-01T09:39:44;32.13;;;19.17;;
18172;SDS011;9211;48.818;9.312;2023-03-01T09:42:11;30.00;;;17.98;;
18172;SDS011;9211;48.818;9.312;2023-03-01T09:44:42;32.42;;;18.73;;
18172;SDS011;9211;48.818;9.312;2023-03-01T09:47:16;29.83;;;17.77;;
18172;SDS011;9211;48.818;9.312;2023-03-01T09:49:45;29.60;;;17.92;;
18172;SDS011;9211;48.818;9.312;2023-03-01T09:52:21;32.07;;;18.47;;
18172;SDS011;9211;48.818;9.312;2023-03-01T09:54:55;32.25;;;19.05;;
18172;SDS011;9211;48.818;9.312;2023-03-01T09:57:26;31.15;;;18.67;;
18172;SDS011;9211;48.818;9.312;2023-03-01T10:00:13;31.13;;;18.48;;
18172;SDS011;9211;48.818;9.312;2023-03-01T10:02:49;31.58;;;18.15;;
18172;SDS011;9211;48.818;9.312;2023-03-01T10:05:27;30.60;;;17.90;;
18172;SDS011;9211;48.818;9.312;2023-03-01T10:10:56;31.50;;;17.67;;
18172;SDS011;9211;48.818;9.312;2023-03-01T10:13:25;31.57;;;18.73;;
18172;SDS011;9211;48.818;9.312;2023-03-01T10:15:57;33.67;;;18.80;;
18172;SDS011;9211;48.818;9.312;2023-03-01T10:18:29;31.00;;;17.87;;
18172;SDS011;9211;48.818;9.312;2023-03-01T10:21:02;30.17;;;18.25;;
18172;SDS011;9211;48.818;9.312;2023-03-01T10:23:38;31.00;;;18.48;;
18172;SDS011;9211;48.818;9.312;2023-03-01T10:26:11;29.52;;;17.80;;
18172;SDS011;9211;48.818;9.312;2023-03-01T10:28:50;28.05;;;16.25;;
18172;SDS011;9211;48.818;9.312;2023-03-01T10:31:24;29.27;;;17.20;;
18172;SDS011;9211;48.818;9.312;2023-03-01T10:33:55;29.13;;;17.00;;
18172;SDS011;9211;48.818;9.312;2023-03-01T10:36:24;29.33;;;16.92;;
18172;SDS011;9211;48.818;9.312;2023-03-01T10:38:52;28.70;;;17.38;;
18172;SDS011;9211;48.818;9.312;2023-03-01T10:41:20;30.23;;;17.42;;
18172;SDS011;9211;48.818;9.312;2023-03-01T10:43:49;30.73;;;17.33;;
18172;SDS011;9211;48.818;9.312;2023-03-01T10:46:22;29.00;;;17.05;;
18172;SDS011;9211;48.818;9.312;2023-03-01T10:49:07;28.00;;;16.90;;
18172;SDS011;9211;48.818;9.312;2023-03-01T10:51:39;31.17;;;17.88;;
18172;SDS011;9211;48.818;9.312;2023-03-01T10:54:14;31.48;;;17.20;;
18172;SDS011;9211;48.818;9.312;2023-03-01T10:56:47;29.55;;;16.88;;
18172;SDS011;9211;48.818;9.312;2023-03-01T10:59:22;30.30;;;16.83;;
18172;SDS011;9211;48.818;9.312;2023-03-01T11:04:59;26.85;;;16.58;;
18172;SDS011;9211;48.818;9.312;2023-03-01T11:07:27;26.75;;;16.42;;
18172;SDS011;9211;48.818;9.312;2023-03-01T11:09:55;30.67;;;17.60;;
18172;SDS011;9211;48.818;9.312;2023-03-01T11:12:22;28.10;;;17.10;;
18172;SDS011;9211;48.818;9.312;2023-03-01T11:14:51;26.95;;;15.80;;
18172;SDS011;9211;48.818;9.312;2023-03-01T11:17:21;27.48;;;16.27;;
18172;SDS011;9211;48.818;9.312;2023-03-01T11:20:01;27.63;;;16.65;;
18172;SDS011;9211;48.818;9.312;2023-03-01T11:22:31;27.13;;;16.02;;
18172;SDS011;9211;48.818;9.312;2023-03-01T11:25:01;25.83;;;16.40;;
18172;SDS011;9211;48.818;9.312;2023-03-01T11:27:30;26.73;;;15.63;;
18172;SDS011;9211;48.818;9.312;2023-03-01T11:29:59;25.23;;;15.70;;
18172;SDS011;9211;48.818;9.312;2023-03-01T11:32:34;24.85;;;15.25;;
18172;SDS011;9211;48.818;9.312;2023-03-01T11:35:10;27.27;;;15.43;;
18172;SDS011;9211;48.818;9.312;2023-03-01T11:37:44;26.90;;;16.00;;
18172;SDS011;9211;48.818;9.312;2023-03-01T11:40:26;26.55;;;15.48;;
18172;SDS011;9211;48.818;9.312;2023-03-01T11:43:02;28.10;;;15.63;;
18172;SDS011;9211;48.818;9.312;2023-03-01T11:45:39;25.05;;;15.32;;
18172;SDS011;9211;48.818;9.312;2023-03-01T11:48:32;26.10;;;15.25;;
18172;SDS011;9211;48.818;9.312;2023-03-01T11:51:12;24.77;;;15.48;;
18172;SDS011;9211;48.818;9.312;2023-03-01T11:53:50;27.13;;;15.70;;
18172;SDS011;9211;48.818;9.312;2023-03-01T11:56:34;27.55;;;16.17;;
18172;SDS011;9211;48.818;9.312;2023-03-01T12:02:19;25.83;;;15.68;;
18172;SDS011;9211;48.818;9.312;2023-03-01T12:05:17;23.13;;;14.18;;
18172;SDS011;9211;48.818;9.312;2023-03-01T12:07:56;23.38;;;14.38;;
18172;SDS011;9211;48.818;9.312;2023-03-01T12:10:33;23.83;;;14.50;;
18172;SDS011;9211;48.818;9.312;2023-03-01T12:13:20;27.35;;;15.13;;
18172;SDS011;9211;48.818;9.312;2023-03-01T12:16:04;23.48;;;14.55;;
18172;SDS011;9211;48.818;9.312;2023-03-01T12:18:45;23.52;;;14.52;;
18172;SDS011;9211;48.818;9.312;2023-03-01T12:21:24;25.60;;;14.30;;
18172;SDS011;9211;48.818;9.312;2023-03-01T12:27:10;23.77;;;14.80;;
18172;SDS011;9211;48.818;9.312;2023-03-01T12:29:49;24.95;;;15.00;;
18172;SDS011;9211;48.818;9.312;2023-03-01T12:32:25;24.25;;;14.35;;
18172;SDS011;9211;48.818;9.312;2023-03-01T12:35:05;25.45;;;14.40;;
18172;SDS011;9211;48.818;9.312;2023-03-01T12:37:49;21.98;;;14.15;;
18172;SDS011;9211;48.818;9.312;2023-03-01T12:40:27;22.60;;;14.07;;
18172;SDS011;9211;48.818;9.312;2023-03-01T12:43:08;24.65;;;14.43;;
18172;SDS011;9211;48.818;9.312;2023-03-01T12:45:46;23.95;;;14.27;;
18172;SDS011;9211;48.818;9.312;2023-03-01T12:48:24;22.65;;;13.73;;
18172;SDS011;9211;48.818;9.312;2023-03-01T12:51:01;22.27;;;13.20;;
18172;SDS011;9211;48.818;9.312;2023-03-01T12:53:34;21.38;;;12.85;;
18172;SDS011;9211;48.818;9.312;2023-03-01T12:56:05;23.27;;;13.88;;
18172;SDS011;9211;48.818;9.312;2023-03-01T12:58:39;21.60;;;13.38;;
18172;SDS011;9211;48.818;9.312;2023-03-01T13:01:18;21.60;;;13.25;;
18172;SDS011;9211;48.818;9.312;2023-03-01T13:03:57;22.63;;;13.85;;
18172;SDS011;9211;48.818;9.312;2023-03-01T13:06:40;20.80;;;12.82;;
18172;SDS011;9211;48.818;9.312;2023-03-01T13:09:15;23.85;;;14.20;;
18172;SDS011;9211;48.818;9.312;2023-03-01T13:11:51;21.60;;;13.38;;
18172;SDS011;9211;48.818;9.312;2023-03-01T13:14:36;22.83;;;13.32;;
18172;SDS011;9211;48.818;9.312;2023-03-01T13:19:57;22.52;;;12.18;;
18172;SDS011;9211;48.818;9.312;2023-03-01T13:22:26;26.55;;;15.15;;
18172;SDS011;9211;48.818;9.312;2023-03-01T13:25:11;25.67;;;15.37;;
18172;SDS011;9211;48.818;9.312;2023-03-01T13:27:43;25.23;;;15.18;;
18172;SDS011;9211;48.818;9.312;2023-03-01T13:36:06;24.83;;;15.00;;
18172;SDS011;9211;48.818;9.312;2023-03-01T13:38:37;24.43;;;14.90;;
18172;SDS011;9211;48.818;9.312;2023-03-01T13:41:11;23.58;;;14.65;;
18172;SDS011;9211;48.818;9.312;2023-03-01T13:43:40;26.92;;;15.60;;
18172;SDS011;9211;48.818;9.312;2023-03-01T13:46:09;26.80;;;15.73;;
18172;SDS011;9211;48.818;9.312;2023-03-01T13:48:42;25.37;;;15.60;;
18172;SDS011;9211;48.818;9.312;2023-03-01T13:51:11;29.38;;;16.63;;
18172;SDS011;9211;48.818;9.312;2023-03-01T13:53:39;26.25;;;15.73;;
18172;SDS011;9211;48.818;9.312;2023-03-01T13:56:09;26.48;;;16.15;;
18172;SDS011;9211;48.818;9.312;2023-03-01T13:58:48;28.67;;;16.48;;
18172;SDS011;9211;48.818;9.312;2023-03-01T14:01:21;25.33;;;15.63;;
18172;SDS011;9211;48.818;9.312;2023-03-01T14:03:50;24.80;;;15.02;;
18172;SDS011;9211;48.818;9.312;2023-03-01T14:06:19;24.35;;;14.75;;
18172;SDS011;9211;48.818;9.312;2023-03-01T14:08:48;24.42;;;14.50;;
18172;SDS011;9211;48.818;9.312;2023-03-01T14:14:25;27.85;;;16.27;;
18172;SDS011;9211;48.818;9.312;2023-03-01T14:17:04;28.05;;;17.08;;
18172;SDS011;9211;48.818;9.312;2023-03-01T14:19:56;28.90;;;16.67;;
18172;SDS011;9211;48.818;9.312;2023-03-01T14:22:27;24.15;;;14.95;;
18172;SDS011;9211;48.818;9.312;2023-03-01T14:24:56;25.15;;;15.23;;
18172;SDS011;9211;48.818;9.312;2023-03-01T14:27:26;27.30;;;16.87;;
18172;SDS011;9211;48.818;9.312;2023-03-01T14:29:58;25.60;;;15.60;;
18172;SDS011;9211;48.818;9.312;2023-03-01T14:32:27;24.85;;;15.40;;
18172;SDS011;9211;48.818;9.312;2023-03-01T14:34:56;24.33;;;15.65;;
18172;SDS011;9211;48.818;9.312;2023-03-01T14:37:25;24.77;;;14.52;;
18172;SDS011;9211;48.818;9.312;2023-03-01T14:39:54;28.85;;;15.95;;
18172;SDS011;9211;48.818;9.312;2023-03-01T14:42:22;26.80;;;15.52;;
18172;SDS011;9211;48.818;9.312;2023-03-01T14:44:51;25.83;;;15.43;;
18172;SDS011;9211;48.818;9.312;2023-03-01T14:47:25;24.85;;;15.40;;
18172;SDS011;9211;48.818;9.312;2023-03-01T14:49:57;23.65;;;14.75;;
18172;SDS011;9211;48.818;9.312;2023-03-01T14:52:27;25.92;;;15.73;;
18172;SDS011;9211;48.818;9.312;2023-03-01T14:54:59;24.58;;;15.38;;
18172;SDS011;9211;48.818;9.312;2023-03-01T14:57:29;26.08;;;15.50;;
18172;SDS011;9211;48.818;9.312;2023-03-01T14:59:57;27.25;;;15.60;;
18172;SDS011;9211;48.818;9.312;2023-03-01T15:02:31;25.05;;;14.90;;
18172;SDS011;9211;48.818;9.312;2023-03-01T15:05:01;25.75;;;14.98;;
18172;SDS011;9211;48.818;9.312;2023-03-01T15:07:30;26.85;;;15.77;;
18172;SDS011;9211;48.818;9.312;2023-03-01T15:09:59;24.58;;;15.02;;
18172;SDS011;9211;48.818;9.312;2023-03-01T15:12:34;23.35;;;14.60;;
18172;SDS011;9211;48.818;9.312;2023-03-01T15:17:52;25.52;;;15.55;;
18172;SDS011;9211;48.818;9.312;2023-03-01T15:20:22;25.93;;;15.60;;
18172;SDS011;9211;48.818;9.312;2023-03-01T15:22:52;28.08;;;16.55;;